Terminal Aerodrome Forecast
Issued by NWS Wilmington, NC

Home | Current Version | Previous Version | Text Only | Print | Product List | Glossary On
Versions: 1 2 3 4 5 6 7 8 9 10 11 12 13 14 15 16
000
FTUS42 KILM 201323 AAA
TAFLBT
TAF AMD
KLBT 201323Z 2013/2112 00000KT 4SM BR VV002
      TEMPO 2013/2014 2SM BR SCT002
     FM201400 07006KT P6SM SCT045
     FM210100 00000KT P6SM SCT250
      TEMPO 2108/2112 1SM BR SCT003=

USA.gov is the U.S. government's official web portal to all federal, state and local government web resources and services.